Ship Status Report: callsign 3FWJ3

sailwx.info

Track history (hours):
 
Tides and Currents Weather Stations Pressure Air Temp Water Temp Dewpoint Dewpoint Depression Visibility Wind Speed Wind Dir Waves Ship Positions

Callsign 3FWJ3 (name unknown)

Last reported at 2014-Sep-30 23:25 UTC. Time now 2014-Oct-01 06:12 UTC.
Position N 41°08' E 002°07'.

Date/timePositionNaut miles runAvg speedWind from/ knotsBaromVisibWave heightAir tempDewpointWater temp
2014-Sep-30 23:25N 41°08' E 002°07'1416.6
2014-Sep-30 22:33N 40°57' E 001°56'1817.6
2014-Sep-30 21:33N 40°42' E 001°42'1817.6
2014-Sep-30 20:33N 40°28' E 001°29'1717.6
2014-Sep-30 19:33N 40°13' E 001°17'1717.4
2014-Sep-30 18:33N 39°58' E 001°05'1817.5
2014-Sep-30 17:33N 39°43' E 000°52'4916.3
2014-Sep-30 14:31N 39°27' W 000°08'9 9.3
2014-Sep-30 13:33N 39°26' W 000°20'0 0.0
2014-Sep-30 12:13N 39°26' W 000°20'0 0.0
2014-Sep-30 11:31N 39°26' W 000°20'0 0.0
2014-Sep-30 10:31N 39°26' W 000°20'0 0.0
2014-Sep-30 09:31N 39°26' W 000°20'0 0.0
2014-Sep-30 08:28N 39°26' W 000°20'0 0.0
2014-Sep-30 07:31N 39°26' W 000°20'0 0.0
2014-Sep-30 06:31N 39°26' W 000°20'0 0.0
2014-Sep-30 05:31N 39°26' W 000°20'0 0.0
2014-Sep-30 04:33N 39°26' W 000°20'3 2.6
2014-Sep-30 03:32N 39°24' W 000°17'2 1.5
2014-Sep-30 02:31N 39°23' W 000°17'0 0.1
2014-Sep-30 01:28N 39°23' W 000°17'0 0.1
2014-Sep-30 00:28N 39°23' W 000°17'0 0.1
2014-Sep-29 23:16N 39°23' W 000°17'0 0.2
2014-Sep-29 22:31N 39°23' W 000°17'0 0.1
2014-Sep-29 21:13N 39°23' W 000°17'0 0.0
2014-Sep-29 17:07N 39°23' W 000°17'3 5.0
2014-Sep-29 16:34N 39°26' W 000°18'1 1.0
2014-Sep-29 15:31N 39°26' W 000°19'0 0.0
2014-Sep-29 14:31N 39°26' W 000°19'0 0.0
2014-Sep-29 13:25N 39°26' W 000°19'0 0.0
2014-Sep-29 12:31N 39°26' W 000°19'0 0.0
2014-Sep-29 11:31N 39°26' W 000°19'0 0.0
2014-Sep-29 10:31N 39°26' W 000°19'0 0.0
2014-Sep-29 09:31N 39°26' W 000°19'0 0.0
2014-Sep-29 07:28N 39°26' W 000°19'0 0.0
2014-Sep-29 06:31N 39°26' W 000°19'0 0.0
2014-Sep-29 05:31N 39°26' W 000°19'0 0.0
2014-Sep-29 04:31N 39°26' W 000°19'0 0.0
2014-Sep-29 03:31N 39°26' W 000°19'0 0.0
2014-Sep-29 02:31N 39°26' W 000°19'0 0.0
2014-Sep-29 01:31N 39°26' W 000°19'0 0.0
2014-Sep-29 00:31N 39°26' W 000°19'0 0.0
2014-Sep-28 23:31N 39°26' W 000°19'0 0.0
2014-Sep-28 22:28N 39°26' W 000°19'0 0.0
2014-Sep-28 21:31N 39°26' W 000°19'0 0.0
2014-Sep-28 20:31N 39°26' W 000°19'0 0.0
2014-Sep-28 19:31N 39°26' W 000°19'0 0.0
2014-Sep-28 18:31N 39°26' W 000°19'0 0.0
2014-Sep-28 17:31N 39°26' W 000°19'0 0.0
2014-Sep-28 16:31N 39°26' W 000°19'0 0.0
2014-Sep-28 15:31N 39°26' W 000°19'0 0.0
2014-Sep-28 14:31N 39°26' W 000°19'0 0.0
2014-Sep-28 13:31N 39°26' W 000°19'0 0.0
2014-Sep-28 12:31N 39°26' W 000°19'0 0.0
2014-Sep-28 11:31N 39°26' W 000°19'0 0.0
2014-Sep-28 10:31N 39°26' W 000°19'0 0.4
2014-Sep-28 09:33N 39°26' W 000°19'5 5.3
2014-Sep-28 08:33N 39°24' W 000°13'7417.8
2014-Sep-28 04:24N 38°42' E 001°06'1618.7
2014-Sep-28 03:32N 38°33' E 001°23'2318.7
2014-Sep-28 02:17N 38°22' E 001°49'1418.5
2014-Sep-28 01:33N 38°16' E 002°05'1818.5
2014-Sep-28 00:33N 38°07' E 002°26'1918.7
2014-Sep-27 23:33N 37°59' E 002°47'1919.0
2014-Sep-27 22:33N 37°49' E 003°07'1918.9
2014-Sep-27 21:33N 37°40' E 003°28'1918.6
2014-Sep-27 20:33N 37°31' E 003°49'1818.3
2014-Sep-27 19:33N 37°22' E 004°09'  
2014-Sep-22 07:15N 36°43' E 005°13'0 0.0
2014-Sep-21 07:30N 36°43' E 005°13'0 0.0
2014-Sep-21 06:33N 36°43' E 005°13'0 0.0
2014-Sep-21 05:21N 36°43' E 005°13'  
Track history (hours):
 
Tides and Currents Weather Stations Pressure Air Temp Water Temp Dewpoint Dewpoint Depression Visibility Wind Speed Wind Dir Waves Ship Positions

Callsign 3FWJ3 (name unknown)

Last reported at 2014-Sep-30 23:25 UTC. Time now 2014-Oct-01 06:12 UTC.
Position N 41°08' E 002°07'.

Date/timePositionNaut miles runAvg speedWind from/ knotsBaromVisibWave heightAir tempDewpointWater temp
2014-Sep-30 23:25N 41°08' E 002°07'1416.6
2014-Sep-30 22:33N 40°57' E 001°56'1817.6
2014-Sep-30 21:33N 40°42' E 001°42'1817.6
2014-Sep-30 20:33N 40°28' E 001°29'1717.6
2014-Sep-30 19:33N 40°13' E 001°17'1717.4
2014-Sep-30 18:33N 39°58' E 001°05'1817.5
2014-Sep-30 17:33N 39°43' E 000°52'4916.3
2014-Sep-30 14:31N 39°27' W 000°08'9 9.3
2014-Sep-30 13:33N 39°26' W 000°20'0 0.0
2014-Sep-30 12:13N 39°26' W 000°20'0 0.0
2014-Sep-30 11:31N 39°26' W 000°20'0 0.0
2014-Sep-30 10:31N 39°26' W 000°20'0 0.0
2014-Sep-30 09:31N 39°26' W 000°20'0 0.0
2014-Sep-30 08:28N 39°26' W 000°20'0 0.0
2014-Sep-30 07:31N 39°26' W 000°20'0 0.0
2014-Sep-30 06:31N 39°26' W 000°20'0 0.0
2014-Sep-30 05:31N 39°26' W 000°20'0 0.0
2014-Sep-30 04:33N 39°26' W 000°20'3 2.6
2014-Sep-30 03:32N 39°24' W 000°17'2 1.5
2014-Sep-30 02:31N 39°23' W 000°17'0 0.1
2014-Sep-30 01:28N 39°23' W 000°17'0 0.1
2014-Sep-30 00:28N 39°23' W 000°17'0 0.1
2014-Sep-29 23:16N 39°23' W 000°17'0 0.2
2014-Sep-29 22:31N 39°23' W 000°17'0 0.1
2014-Sep-29 21:13N 39°23' W 000°17'0 0.0
2014-Sep-29 17:07N 39°23' W 000°17'3 5.0
2014-Sep-29 16:34N 39°26' W 000°18'1 1.0
2014-Sep-29 15:31N 39°26' W 000°19'0 0.0
2014-Sep-29 14:31N 39°26' W 000°19'0 0.0
2014-Sep-29 13:25N 39°26' W 000°19'0 0.0
2014-Sep-29 12:31N 39°26' W 000°19'0 0.0
2014-Sep-29 11:31N 39°26' W 000°19'0 0.0
2014-Sep-29 10:31N 39°26' W 000°19'0 0.0
2014-Sep-29 09:31N 39°26' W 000°19'0 0.0
2014-Sep-29 07:28N 39°26' W 000°19'0 0.0
2014-Sep-29 06:31N 39°26' W 000°19'0 0.0
2014-Sep-29 05:31N 39°26' W 000°19'0 0.0
2014-Sep-29 04:31N 39°26' W 000°19'0 0.0
2014-Sep-29 03:31N 39°26' W 000°19'0 0.0
2014-Sep-29 02:31N 39°26' W 000°19'0 0.0
2014-Sep-29 01:31N 39°26' W 000°19'0 0.0
2014-Sep-29 00:31N 39°26' W 000°19'0 0.0
2014-Sep-28 23:31N 39°26' W 000°19'0 0.0
2014-Sep-28 22:28N 39°26' W 000°19'0 0.0
2014-Sep-28 21:31N 39°26' W 000°19'0 0.0
2014-Sep-28 20:31N 39°26' W 000°19'0 0.0
2014-Sep-28 19:31N 39°26' W 000°19'0 0.0
2014-Sep-28 18:31N 39°26' W 000°19'0 0.0
2014-Sep-28 17:31N 39°26' W 000°19'0 0.0
2014-Sep-28 16:31N 39°26' W 000°19'0 0.0
2014-Sep-28 15:31N 39°26' W 000°19'0 0.0
2014-Sep-28 14:31N 39°26' W 000°19'0 0.0
2014-Sep-28 13:31N 39°26' W 000°19'0 0.0
2014-Sep-28 12:31N 39°26' W 000°19'0 0.0
2014-Sep-28 11:31N 39°26' W 000°19'0 0.0
2014-Sep-28 10:31N 39°26' W 000°19'0 0.4
2014-Sep-28 09:33N 39°26' W 000°19'5 5.3
2014-Sep-28 08:33N 39°24' W 000°13'7417.8
2014-Sep-28 04:24N 38°42' E 001°06'1618.7
2014-Sep-28 03:32N 38°33' E 001°23'2318.7
2014-Sep-28 02:17N 38°22' E 001°49'1418.5
2014-Sep-28 01:33N 38°16' E 002°05'1818.5
2014-Sep-28 00:33N 38°07' E 002°26'1918.7
2014-Sep-27 23:33N 37°59' E 002°47'1919.0
2014-Sep-27 22:33N 37°49' E 003°07'1918.9
2014-Sep-27 21:33N 37°40' E 003°28'1918.6
2014-Sep-27 20:33N 37°31' E 003°49'1818.3
2014-Sep-27 19:33N 37°22' E 004°09'  
2014-Sep-22 07:15N 36°43' E 005°13'0 0.0
2014-Sep-21 07:30N 36°43' E 005°13'0 0.0
2014-Sep-21 06:33N 36°43' E 005°13'0 0.0
2014-Sep-21 05:21N 36°43' E 005°13'  

Dump ship's entire track history